Time,TemperatureF,DewpointF,PressureIn,WindDirection,WindDirectionDegrees,WindSpeedMPH,WindSpeedGustMPH,Humidity,HourlyPrecipIn,Conditions,Clouds,dailyrainin,SoftwareType,DateUTC
2015-04-25 00:05:00,53.9,39.3,28.79,SE,126,6.3,9.6,57,0.00,,,-99.99,HOBO +U30 +Weather +,2015-04-25 04:05:00,
2015-04-25 00:07:00,53.8,39.3,28.79,SE,126,5.6,8.5,57,0.00,,,-99.99,HOBO +U30 +Weather +,2015-04-25 04:07:00,
2015-04-25 00:15:00,53.8,39.2,28.78,ESE,118,6.3,7.8,57,0.00,,,-99.99,HOBO +U30 +Weather +,2015-04-25 04:15:00,
2015-04-25 00:16:00,53.8,39.5,28.78,SE,126,5.6,8.5,58,0.00,,,-99.99,HOBO +U30 +Weather +,2015-04-25 04:16:00,
2015-04-25 00:25:00,53.7,39.3,28.78,ESE,115,4.0,7.4,57,0.00,,,-99.99,HOBO +U30 +Weather +,2015-04-25 04:25:00,
2015-04-25 00:26:00,53.7,39.3,28.78,ESE,115,5.1,7.8,58,0.00,,,-99.99,HOBO +U30 +Weather +,2015-04-25 04:26:00,
2015-04-25 00:35:00,53.7,39.0,28.77,ESE,121,5.6,8.9,57,0.00,,,-99.99,HOBO +U30 +Weather +,2015-04-25 04:35:00,
2015-04-25 00:36:00,53.8,39.0,28.77,ESE,119,6.3,8.9,57,0.00,,,-99.99,HOBO +U30 +Weather +,2015-04-25 04:36:00,
2015-04-25 00:45:00,53.4,39.4,28.79,East,95,2.9,5.6,58,0.00,,,-99.99,HOBO +U30 +Weather +,2015-04-25 04:45:00,
2015-04-25 00:46:00,53.6,39.3,28.78,ESE,112,3.4,6.7,58,0.00,,,-99.99,HOBO +U30 +Weather +,2015-04-25 04:46:00,
2015-04-25 00:55:00,53.4,39.4,28.79,East,98,5.1,7.4,58,0.00,,,-99.99,HOBO +U30 +Weather +,2015-04-25 04:55:00,
2015-04-25 01:05:00,53.3,39.5,28.77,ESE,114,6.3,9.6,59,0.00,,,-99.99,HOBO +U30 +Weather +,2015-04-25 05:05:00,
2015-04-25 01:15:00,53.2,39.5,28.78,ESE,108,6.3,8.9,59,0.00,,,-99.99,HOBO +U30 +Weather +,2015-04-25 05:15:00,
2015-04-25 01:24:00,53.2,39.8,28.78,ESE,104,6.3,9.6,60,0.00,,,-99.99,HOBO +U30 +Weather +,2015-04-25 05:24:00,
2015-04-25 01:34:00,52.9,39.7,28.77,East,100,6.3,9.6,60,0.00,,,-99.99,HOBO +U30 +Weather +,2015-04-25 05:34:00,
2015-04-25 01:44:00,53.0,39.4,28.77,ESE,102,6.7,10.1,59,0.00,,,-99.99,HOBO +U30 +Weather +,2015-04-25 05:44:00,
2015-04-25 01:54:00,52.9,39.4,28.78,ESE,118,5.6,8.5,59,0.00,,,-99.99,HOBO +U30 +Weather +,2015-04-25 05:54:00,
2015-04-25 02:00:00,52.9,39.1,28.78,ESE,121,7.4,10.1,59,0.00,,,-99.99,HOBO +U30 +Weather +,2015-04-25 06:00:00,
2015-04-25 02:03:00,53.0,39.3,28.78,ESE,122,7.8,10.7,59,0.00,,,-99.99,HOBO +U30 +Weather +,2015-04-25 06:03:00,
2015-04-25 02:10:00,52.7,39.1,28.78,ESE,114,7.4,10.1,59,0.00,,,-99.99,HOBO +U30 +Weather +,2015-04-25 06:10:00,
2015-04-25 02:13:00,52.9,39.2,28.78,ESE,118,7.4,10.1,59,0.00,,,-99.99,HOBO +U30 +Weather +,2015-04-25 06:13:00,
2015-04-25 02:20:00,52.1,39.5,28.78,SE,124,7.4,9.6,62,0.00,,,-99.99,HOBO +U30 +Weather +,2015-04-25 06:20:00,
2015-04-25 02:23:00,52.3,39.4,28.78,ESE,118,7.4,10.1,61,0.00,,,-99.99,HOBO +U30 +Weather +,2015-04-25 06:23:00,
2015-04-25 02:30:00,51.9,39.2,28.77,ESE,121,7.8,10.1,61,0.00,,,-99.99,HOBO +U30 +Weather +,2015-04-25 06:30:00,
2015-04-25 02:32:00,52.3,39.4,28.78,SE,126,7.8,13.0,61,0.00,,,-99.99,HOBO +U30 +Weather +,2015-04-25 06:32:00,
2015-04-25 02:40:00,51.9,39.2,28.77,SE,126,7.4,10.7,61,0.00,,,-99.99,HOBO +U30 +Weather +,2015-04-25 06:40:00,
2015-04-25 02:42:00,51.9,39.3,28.77,SE,128,7.8,10.1,61,0.00,,,-99.99,HOBO +U30 +Weather +,2015-04-25 06:42:00,
2015-04-25 02:50:00,51.4,39.5,28.77,ESE,111,6.3,8.5,63,0.00,,,-99.99,HOBO +U30 +Weather +,2015-04-25 06:50:00,
2015-04-25 02:52:00,51.5,39.5,28.77,SE,125,6.3,8.5,63,0.00,,,-99.99,HOBO +U30 +Weather +,2015-04-25 06:52:00,
2015-04-25 03:00:00,51.4,39.9,28.77,ENE,60,5.1,7.4,64,0.00,,,-99.99,HOBO +U30 +Weather +,2015-04-25 07:00:00,
2015-04-25 03:02:00,51.5,39.9,28.77,East,87,5.6,10.1,64,0.00,,,-99.99,HOBO +U30 +Weather +,2015-04-25 07:02:00,
2015-04-25 03:10:00,50.9,40.0,28.77,NE,48,3.4,6.7,65,0.00,,,-99.99,HOBO +U30 +Weather +,2015-04-25 07:10:00,
2015-04-25 03:11:00,51.0,40.4,28.77,NE,37,4.0,5.6,66,0.00,,,-99.99,HOBO +U30 +Weather +,2015-04-25 07:11:00,
2015-04-25 03:20:00,51.1,40.0,28.78,NE,51,1.8,5.1,65,0.00,,,-99.99,HOBO +U30 +Weather +,2015-04-25 07:20:00,
2015-04-25 03:21:00,51.2,39.7,28.77,ENE,59,2.2,8.5,64,0.00,,,-99.99,HOBO +U30 +Weather +,2015-04-25 07:21:00,
2015-04-25 03:30:00,50.7,40.2,28.77,NNE,22,2.2,6.3,67,0.00,,,-99.99,HOBO +U30 +Weather +,2015-04-25 07:30:00,
2015-04-25 03:31:00,50.8,40.2,28.77,NE,37,1.8,5.1,66,0.00,,,-99.99,HOBO +U30 +Weather +,2015-04-25 07:31:00,
2015-04-25 03:40:00,50.0,39.8,28.76,NE,53,6.7,9.6,68,0.00,,,-99.99,HOBO +U30 +Weather +,2015-04-25 07:40:00,
2015-04-25 03:41:00,50.5,40.4,28.77,NE,37,6.3,10.7,68,0.00,,,-99.99,HOBO +U30 +Weather +,2015-04-25 07:41:00,
2015-04-25 03:50:00,49.9,40.0,28.76,NE,55,4.0,6.3,68,0.00,,,-99.99,HOBO +U30 +Weather +,2015-04-25 07:50:00,
2015-04-25 04:00:00,50.1,40.2,28.76,NE,55,3.4,7.4,68,0.00,,,-99.99,HOBO +U30 +Weather +,2015-04-25 08:00:00,
2015-04-25 04:10:00,50.1,40.6,28.76,East,95,4.5,6.7,69,0.00,,,-99.99,HOBO +U30 +Weather +,2015-04-25 08:10:00,
2015-04-25 04:20:00,50.1,40.8,28.75,East,93,4.0,6.7,70,0.00,,,-99.99,HOBO +U30 +Weather +,2015-04-25 08:20:00,
2015-04-25 04:29:00,49.9,41.1,28.75,ESE,104,2.9,5.1,71,0.00,,,-99.99,HOBO +U30 +Weather +,2015-04-25 08:29:00,
2015-04-25 04:39:00,50.1,40.7,28.75,ESE,102,4.5,6.7,69,0.00,,,-99.99,HOBO +U30 +Weather +,2015-04-25 08:39:00,
2015-04-25 04:49:00,50.2,40.3,28.75,ESE,122,0.7,2.2,68,0.00,,,-99.99,HOBO +U30 +Weather +,2015-04-25 08:49:00,
2015-04-25 04:58:00,50.1,41.1,28.75,SE,145,2.9,5.6,71,0.00,,,-99.99,HOBO +U30 +Weather +,2015-04-25 08:58:00,
2015-04-25 05:05:00,49.6,40.7,28.75,East,97,3.4,5.1,71,0.00,,,-99.99,HOBO +U30 +Weather +,2015-04-25 09:05:00,
2015-04-25 05:08:00,49.8,40.7,28.75,East,100,2.9,4.5,70,0.00,,,-99.99,HOBO +U30 +Weather +,2015-04-25 09:08:00,
2015-04-25 05:15:00,49.9,40.0,28.74,East,88,5.1,7.4,68,0.00,,,-99.99,HOBO +U30 +Weather +,2015-04-25 09:15:00,
2015-04-25 05:18:00,49.7,40.4,28.75,East,88,2.2,5.1,70,0.00,,,-99.99,HOBO +U30 +Weather +,2015-04-25 09:18:00,
2015-04-25 05:25:00,49.5,40.4,28.74,East,94,4.5,7.8,70,0.00,,,-99.99,HOBO +U30 +Weather +,2015-04-25 09:25:00,
2015-04-25 05:27:00,49.7,40.3,28.73,East,94,5.6,7.8,69,0.00,,,-99.99,HOBO +U30 +Weather +,2015-04-25 09:27:00,
2015-04-25 05:35:00,49.4,40.5,28.72,East,88,5.1,8.5,71,0.00,,,-99.99,HOBO +U30 +Weather +,2015-04-25 09:35:00,
2015-04-25 05:37:00,49.6,40.1,28.73,East,91,6.3,8.5,69,0.00,,,-99.99,HOBO +U30 +Weather +,2015-04-25 09:37:00,
2015-04-25 05:45:00,49.1,40.5,28.71,East,97,6.3,10.1,72,0.00,,,-99.99,HOBO +U30 +Weather +,2015-04-25 09:45:00,
2015-04-25 05:47:00,49.5,40.4,28.71,East,88,7.4,9.6,70,0.00,,,-99.99,HOBO +U30 +Weather +,2015-04-25 09:47:00,
2015-04-25 05:55:00,49.2,40.5,28.70,ESE,111,7.4,10.7,71,0.00,,,-99.99,HOBO +U30 +Weather +,2015-04-25 09:55:00,
2015-04-25 06:05:00,48.9,40.6,28.69,ESE,114,8.5,12.3,72,0.00,,,-99.99,HOBO +U30 +Weather +,2015-04-25 10:05:00,
2015-04-25 06:06:00,49.1,40.6,28.70,ESE,114,6.7,10.7,72,0.00,,,-99.99,HOBO +U30 +Weather +,2015-04-25 10:06:00,
2015-04-25 06:15:00,49.0,40.6,28.69,ESE,121,10.1,14.5,72,0.00,,,-99.99,HOBO +U30 +Weather +,2015-04-25 10:15:00,
2015-04-25 06:16:00,49.0,40.7,28.69,ESE,118,9.6,14.1,73,0.00,,,-99.99,HOBO +U30 +Weather +,2015-04-25 10:16:00,
2015-04-25 06:25:00,49.0,40.6,28.70,SE,124,8.5,12.3,72,0.00,,,-99.99,HOBO +U30 +Weather +,2015-04-25 10:25:00,
2015-04-25 06:26:00,49.0,40.6,28.69,SE,124,8.9,12.3,72,0.00,,,-99.99,HOBO +U30 +Weather +,2015-04-25 10:26:00,
2015-04-25 06:35:00,49.1,40.4,28.71,SE,132,6.3,8.5,71,0.00,,,-99.99,HOBO +U30 +Weather +,2015-04-25 10:35:00,
2015-04-25 06:36:00,49.0,40.5,28.70,SE,131,7.4,12.3,72,0.00,,,-99.99,HOBO +U30 +Weather +,2015-04-25 10:36:00,
2015-04-25 06:45:00,49.1,40.4,28.71,ESE,117,4.0,5.6,71,0.00,,,-99.99,HOBO +U30 +Weather +,2015-04-25 10:45:00,
2015-04-25 06:55:00,49.1,40.4,28.72,East,93,1.8,5.6,71,0.00,,,-99.99,HOBO +U30 +Weather +,2015-04-25 10:55:00,
2015-04-25 07:05:00,49.1,40.2,28.72,East,91,3.4,6.7,71,0.00,,,-99.99,HOBO +U30 +Weather +,2015-04-25 11:05:00,
2015-04-25 07:14:00,48.9,40.1,28.71,ESE,102,5.1,8.9,71,0.00,,,-99.99,HOBO +U30 +Weather +,2015-04-25 11:14:00,
2015-04-25 07:24:00,48.9,40.2,28.70,ESE,107,6.3,10.1,71,0.00,,,-99.99,HOBO +U30 +Weather +,2015-04-25 11:24:00,
2015-04-25 07:34:00,48.9,40.0,28.69,ESE,121,7.4,10.1,71,0.00,,,-99.99,HOBO +U30 +Weather +,2015-04-25 11:34:00,
2015-04-25 07:40:00,48.9,39.7,28.70,SE,125,7.4,10.1,70,0.00,,,-99.99,HOBO +U30 +Weather +,2015-04-25 11:40:00,
2015-04-25 07:43:00,49.0,39.7,28.69,SE,124,8.5,12.3,70,0.00,,,-99.99,HOBO +U30 +Weather +,2015-04-25 11:43:00,
2015-04-25 07:50:00,49.0,39.5,28.70,SE,132,8.9,13.4,69,0.00,,,-99.99,HOBO +U30 +Weather +,2015-04-25 11:50:00,
2015-04-25 07:53:00,49.0,39.7,28.69,SE,126,7.8,13.0,70,0.00,,,-99.99,HOBO +U30 +Weather +,2015-04-25 11:53:00,
2015-04-25 08:00:00,48.9,39.6,28.69,SE,131,10.7,16.3,70,0.00,,,-99.99,HOBO +U30 +Weather +,2015-04-25 12:00:00,
2015-04-25 08:03:00,48.9,39.5,28.69,SE,135,9.6,13.4,69,0.00,,,-99.99,HOBO +U30 +Weather +,2015-04-25 12:03:00,
2015-04-25 08:10:00,48.8,39.7,28.68,SE,129,11.2,17.4,70,0.00,,,-99.99,HOBO +U30 +Weather +,2015-04-25 12:10:00,
2015-04-25 08:12:00,48.8,39.5,28.69,SE,135,12.3,15.9,70,0.00,,,-99.99,HOBO +U30 +Weather +,2015-04-25 12:12:00,
2015-04-25 08:20:00,48.6,39.9,28.68,SE,131,11.2,16.3,71,0.00,,,-99.99,HOBO +U30 +Weather +,2015-04-25 12:20:00,
2015-04-25 08:22:00,48.6,39.7,28.68,SE,126,12.3,17.0,71,0.00,,,-99.99,HOBO +U30 +Weather +,2015-04-25 12:22:00,
2015-04-25 08:30:00,48.4,40.2,28.67,SE,143,13.0,17.4,73,0.00,,,-99.99,HOBO +U30 +Weather +,2015-04-25 12:30:00,
2015-04-25 08:32:00,48.5,40.1,28.67,SE,133,11.2,15.2,72,0.00,,,-99.99,HOBO +U30 +Weather +,2015-04-25 12:32:00,
2015-04-25 08:40:00,48.2,40.5,28.66,SE,139,12.3,17.4,74,0.00,,,-99.99,HOBO +U30 +Weather +,2015-04-25 12:40:00,
2015-04-25 08:41:00,48.3,40.4,28.67,SE,140,13.0,19.2,73,0.00,,,-99.99,HOBO +U30 +Weather +,2015-04-25 12:41:00,
2015-04-25 08:50:00,48.3,41.0,28.66,SE,133,12.3,18.6,75,0.00,,,-99.99,HOBO +U30 +Weather +,2015-04-25 12:50:00,
2015-04-25 08:51:00,48.2,40.7,28.67,SE,133,11.9,17.0,75,0.00,,,-99.99,HOBO +U30 +Weather +,2015-04-25 12:51:00,
2015-04-25 09:00:00,48.2,41.3,28.66,SE,128,11.2,15.2,76,0.00,,,-99.99,HOBO +U30 +Weather +,2015-04-25 13:00:00,
2015-04-25 09:01:00,48.2,41.1,28.66,SE,128,11.9,17.4,76,0.00,,,-99.99,HOBO +U30 +Weather +,2015-04-25 13:01:00,
2015-04-25 09:10:00,48.1,41.5,28.65,ESE,122,11.2,19.2,77,0.00,,,-99.99,HOBO +U30 +Weather +,2015-04-25 13:10:00,
2015-04-25 09:20:00,48.2,42.0,28.65,SE,126,13.0,19.2,78,0.00,,,-99.99,HOBO +U30 +Weather +,2015-04-25 13:20:00,
2015-04-25 09:30:00,48.4,42.5,28.65,SE,132,11.2,16.3,80,0.00,,,-99.99,HOBO +U30 +Weather +,2015-04-25 13:30:00,
2015-04-25 09:40:00,48.4,42.8,28.65,SE,129,11.9,17.4,80,0.00,,,-99.99,HOBO +U30 +Weather +,2015-04-25 13:40:00,
2015-04-25 09:49:00,48.5,43.0,28.65,SE,132,12.3,15.9,81,0.00,,,-99.99,HOBO +U30 +Weather +,2015-04-25 13:49:00,
2015-04-25 10:09:00,48.8,43.7,28.65,SE,124,9.6,13.4,82,0.00,,,-99.99,HOBO +U30 +Weather +,2015-04-25 14:09:00,
2015-04-25 10:18:00,49.2,43.9,28.64,ESE,122,7.8,11.9,81,0.00,,,-99.99,HOBO +U30 +Weather +,2015-04-25 14:18:00,
2015-04-25 10:25:00,49.0,42.9,28.64,ESE,121,10.1,14.5,79,0.00,,,-99.99,HOBO +U30 +Weather +,2015-04-25 14:25:00,
2015-04-25 10:28:00,49.1,43.1,28.65,SE,125,10.1,17.0,79,0.00,,,-99.99,HOBO +U30 +Weather +,2015-04-25 14:28:00,
2015-04-25 10:35:00,49.1,42.8,28.63,ESE,117,9.6,13.0,78,0.00,,,-99.99,HOBO +U30 +Weather +,2015-04-25 14:35:00,
2015-04-25 10:38:00,49.1,42.9,28.63,ESE,112,9.6,14.5,79,0.00,,,-99.99,HOBO +U30 +Weather +,2015-04-25 14:38:00,
2015-04-25 10:45:00,48.4,42.9,28.63,ESE,122,9.6,13.4,81,0.00,,,-99.99,HOBO +U30 +Weather +,2015-04-25 14:45:00,
2015-04-25 10:47:00,48.9,42.7,28.63,ESE,118,10.1,15.9,78,0.00,,,-99.99,HOBO +U30 +Weather +,2015-04-25 14:47:00,
2015-04-25 10:55:00,47.6,43.6,28.62,ESE,111,8.5,11.2,85,0.00,,,-99.99,HOBO +U30 +Weather +,2015-04-25 14:55:00,
2015-04-25 10:57:00,47.9,43.1,28.63,ESE,118,8.9,14.5,83,0.00,,,-99.99,HOBO +U30 +Weather +,2015-04-25 14:57:00,
2015-04-25 11:05:00,46.9,43.6,28.63,ESE,117,7.8,10.7,87,0.14,,,-99.99,HOBO +U30 +Weather +,2015-04-25 15:05:00,
2015-04-25 11:07:00,47.3,43.6,28.63,ESE,117,7.8,11.2,86,0.14,,,-99.99,HOBO +U30 +Weather +,2015-04-25 15:07:00,
2015-04-25 11:15:00,46.6,44.0,28.63,ESE,108,9.6,14.1,90,0.14,,,-99.99,HOBO +U30 +Weather +,2015-04-25 15:15:00,
2015-04-25 11:17:00,46.7,43.8,28.63,ESE,110,7.8,10.7,89,0.14,,,-99.99,HOBO +U30 +Weather +,2015-04-25 15:17:00,
2015-04-25 11:25:00,46.7,44.6,28.62,East,98,8.5,11.2,92,0.00,,,-99.99,HOBO +U30 +Weather +,2015-04-25 15:25:00,
2015-04-25 11:26:00,46.5,44.1,28.62,East,100,10.7,14.5,91,0.14,,,-99.99,HOBO +U30 +Weather +,2015-04-25 15:26:00,
2015-04-25 11:35:00,46.7,44.8,28.63,East,98,7.4,11.2,93,0.00,,,-99.99,HOBO +U30 +Weather +,2015-04-25 15:35:00,
2015-04-25 11:36:00,46.7,44.7,28.63,East,100,7.8,10.7,92,0.14,,,-99.99,HOBO +U30 +Weather +,2015-04-25 15:36:00,
2015-04-25 11:45:00,47.1,45.2,28.62,East,94,7.4,10.7,93,0.00,,,-99.99,HOBO +U30 +Weather +,2015-04-25 15:45:00,
2015-04-25 11:46:00,47.0,45.1,28.62,East,98,7.4,13.4,93,0.00,,,-99.99,HOBO +U30 +Weather +,2015-04-25 15:46:00,
2015-04-25 11:55:00,47.0,45.0,28.63,East,101,6.3,10.1,92,0.00,,,-99.99,HOBO +U30 +Weather +,2015-04-25 15:55:00,
2015-04-25 12:05:00,47.0,45.2,28.63,ESE,107,6.7,10.1,93,0.00,,,-99.99,HOBO +U30 +Weather +,2015-04-25 16:05:00,
2015-04-25 12:15:00,46.9,45.2,28.60,East,93,10.7,17.0,93,0.00,,,-99.99,HOBO +U30 +Weather +,2015-04-25 16:15:00,
2015-04-25 12:25:00,46.5,44.7,28.61,East,97,9.6,14.1,93,0.14,,,-99.99,HOBO +U30 +Weather +,2015-04-25 16:25:00,
2015-04-25 12:34:00,46.3,44.7,28.61,ESE,111,8.9,13.4,93,0.00,,,-99.99,HOBO +U30 +Weather +,2015-04-25 16:34:00,
2015-04-25 12:44:00,45.9,44.3,28.60,East,88,12.3,17.0,93,0.24,,,-99.99,HOBO +U30 +Weather +,2015-04-25 16:44:00,
2015-04-25 12:54:00,45.8,44.4,28.60,East,83,11.2,17.0,94,0.14,,,-99.99,HOBO +U30 +Weather +,2015-04-25 16:54:00,
2015-04-25 13:00:00,45.6,44.3,28.59,East,86,11.9,17.4,95,0.14,,,-99.99,HOBO +U30 +Weather +,2015-04-25 17:00:00,
2015-04-25 13:03:00,45.8,44.6,28.59,East,88,8.9,14.5,95,0.00,,,-99.99,HOBO +U30 +Weather +,2015-04-25 17:03:00,
2015-04-25 13:10:00,45.3,44.0,28.58,East,91,11.2,17.4,95,0.00,,,-99.99,HOBO +U30 +Weather +,2015-04-25 17:10:00,
2015-04-25 13:13:00,45.4,44.0,28.58,East,87,12.3,19.2,94,0.00,,,-99.99,HOBO +U30 +Weather +,2015-04-25 17:13:00,
2015-04-25 13:20:00,44.9,43.7,28.57,East,94,13.0,19.2,95,0.00,,,-99.99,HOBO +U30 +Weather +,2015-04-25 17:20:00,
2015-04-25 13:23:00,45.1,43.9,28.57,East,88,12.3,17.0,95,0.14,,,-99.99,HOBO +U30 +Weather +,2015-04-25 17:23:00,
2015-04-25 13:30:00,44.6,43.2,28.57,East,93,11.9,15.9,95,0.14,,,-99.99,HOBO +U30 +Weather +,2015-04-25 17:30:00,
2015-04-25 13:32:00,44.8,43.5,28.58,East,93,12.3,19.2,95,0.00,,,-99.99,HOBO +U30 +Weather +,2015-04-25 17:32:00,
2015-04-25 13:40:00,44.4,43.0,28.57,East,80,11.2,17.0,94,0.14,,,-99.99,HOBO +U30 +Weather +,2015-04-25 17:40:00,
2015-04-25 13:42:00,44.4,43.1,28.56,East,86,11.9,17.4,95,0.00,,,-99.99,HOBO +U30 +Weather +,2015-04-25 17:42:00,
2015-04-25 13:50:00,44.1,42.8,28.56,East,90,10.7,15.2,95,0.14,,,-99.99,HOBO +U30 +Weather +,2015-04-25 17:50:00,
2015-04-25 13:52:00,44.1,42.7,28.57,East,91,11.9,15.9,94,0.14,,,-99.99,HOBO +U30 +Weather +,2015-04-25 17:52:00,
2015-04-25 14:00:00,44.4,43.3,28.56,East,90,8.5,11.9,96,0.00,,,-99.99,HOBO +U30 +Weather +,2015-04-25 18:00:00,
2015-04-25 14:01:00,44.3,43.1,28.55,East,90,11.2,16.3,95,0.00,,,-99.99,HOBO +U30 +Weather +,2015-04-25 18:01:00,
2015-04-25 14:10:00,45.0,44.2,28.55,ENE,62,7.4,14.1,96,0.00,,,-99.99,HOBO +U30 +Weather +,2015-04-25 18:10:00,
2015-04-25 14:11:00,44.7,43.8,28.56,ENE,60,5.1,9.6,96,0.00,,,-99.99,HOBO +U30 +Weather +,2015-04-25 18:11:00,
2015-04-25 14:20:00,44.1,43.3,28.55,ENE,62,8.5,14.1,96,0.00,,,-99.99,HOBO +U30 +Weather +,2015-04-25 18:20:00,
2015-04-25 14:21:00,44.6,43.7,28.55,ENE,62,8.9,13.4,96,0.14,,,-99.99,HOBO +U30 +Weather +,2015-04-25 18:21:00,
2015-04-25 14:30:00,43.8,42.9,28.56,ENE,59,8.5,12.3,96,0.24,,,-99.99,HOBO +U30 +Weather +,2015-04-25 18:30:00,
2015-04-25 14:40:00,43.0,42.2,28.55,ENE,58,10.1,18.6,96,0.14,,,-99.99,HOBO +U30 +Weather +,2015-04-25 18:40:00,